»·PEaware :: N96WF 0O2-1L1

N96WF :: 0O2-1L1

FLIGHT INFORMATION

Flight Status: Arrived
Operator: Privately registered:
United States
More flights under this callsign
Pilot: Jeff S. (11988)
Aircraft: BEECH AIRCRAFT BARON
(BE58)
More flights by this aircraft type
Origin: 0O2 Baker
United States
Destination: 1L1 Lincoln Co
United States
More flights between these airports :: More routes between these airports
Route: LAS V394 MMM CDC V293 ILC
File this flight plan on PilotEdge
Remarks:
Altitude:
(Current/Filed)
11,500ft
Speed:
(Current/Filed)
175kts
Departed: 20-Nov-16 12:14 PM
Arrived: 20-Nov-16 01:28 PM
Distance/Time
Traveled:
170nm/1:13
Distance/Time
To Go:
Arrived

Flight Plot

Page will automatically refresh every two minutes.

Flight plan parsing failed; only flown route is shown


Map Options




Map Legend


Flown Route
Filed Route
Departure Airport
Arrival Airport
Navaid (VOR, NDB)
Fix

Horizontal Profiles

Position Reports

Time Latitude Longitude Heading Altitude Ground
Speed
20-Nov-16 12:03 35.282103 -116.079966 345 926ft 0kts
20-Nov-16 12:04 35.282103 -116.079966 345 926ft 0kts
20-Nov-16 12:05 35.282103 -116.079966 345 926ft 0kts
20-Nov-16 12:08 35.291388 -116.085500 308 1360ft 95kts
20-Nov-16 12:09 35.265956 -116.082328 135 3828ft 91kts
20-Nov-16 12:11 35.272210 -116.044124 15 7253ft 144kts
20-Nov-16 12:11 35.272210 -116.044124 15 7253ft 144kts
20-Nov-16 12:11 35.272210 -116.044124 15 7253ft 144kts
20-Nov-16 12:13 35.353370 -116.001740 41 11254ft 152kts
20-Nov-16 12:15 35.436363 -115.908962 45 11482ft 201kts
20-Nov-16 12:16 35.476910 -115.862332 45 11480ft 198kts
20-Nov-16 12:18 35.530289 -115.800732 45 11481ft 197kts
20-Nov-16 12:20 35.625600 -115.690405 45 11528ft 205kts
20-Nov-16 12:22 35.687448 -115.618625 46 11850ft 203kts
20-Nov-16 12:22 35.687448 -115.618625 46 11850ft 203kts
20-Nov-16 12:24 35.787911 -115.501645 46 13427ft 182kts
20-Nov-16 12:25 35.825226 -115.458037 46 13533ft 198kts
20-Nov-16 12:27 35.874407 -115.400524 45 13531ft 208kts
20-Nov-16 12:28 35.910531 -115.358226 45 13531ft 212kts
20-Nov-16 12:29 35.979321 -115.277963 46 13501ft 214kts
20-Nov-16 12:30 36.007263 -115.245156 46 13504ft 213kts
20-Nov-16 12:31 36.058727 -115.184590 46 13512ft 214kts
20-Nov-16 12:33 36.111106 -115.122676 47 13491ft 196kts
20-Nov-16 12:34 36.136641 -115.092379 47 13492ft 184kts
20-Nov-16 12:37 36.231691 -114.979147 47 13480ft 192kts
20-Nov-16 12:41 36.384530 -114.796337 46 12617ft 219kts
20-Nov-16 12:42 36.427218 -114.745155 46 12230ft 220kts
20-Nov-16 12:45 36.576356 -114.565498 46 11481ft 207kts
20-Nov-16 12:46 36.609305 -114.525665 46 11482ft 206kts
20-Nov-16 12:48 36.678083 -114.442345 46 11483ft 209kts
20-Nov-16 12:49 36.733993 -114.374460 46 11483ft 209kts
20-Nov-16 12:50 36.767931 -114.333416 47 11515ft 208kts
20-Nov-16 12:51 36.795708 -114.299798 47 11519ft 209kts
20-Nov-16 12:51 36.823516 -114.265932 47 11519ft 209kts
20-Nov-16 12:53 36.907112 -114.163801 46 11519ft 210kts
20-Nov-16 12:54 36.949169 -114.112472 48 11521ft 212kts
20-Nov-16 12:55 36.991289 -114.060655 48 11530ft 213kts
20-Nov-16 12:56 37.030991 -114.011853 48 11530ft 214kts
20-Nov-16 12:57 37.071912 -113.961450 48 11531ft 214kts
20-Nov-16 12:58 37.113817 -113.909799 48 11524ft 214kts
20-Nov-16 12:59 37.155977 -113.857754 48 11524ft 213kts
20-Nov-16 13:00 37.192600 -113.812468 48 11524ft 212kts
20-Nov-16 13:02 37.231452 -113.795476 298 11284ft 132kts
20-Nov-16 13:03 37.244636 -113.825826 265 10227ft 111kts
20-Nov-16 13:04 37.270092 -113.842397 66 9751ft 117kts
20-Nov-16 13:05 37.271276 -113.834075 0 9403ft 196kts
20-Nov-16 13:06 37.312833 -113.870416 304 9351ft 196kts
20-Nov-16 13:07 37.348450 -113.922579 301 9296ft 198kts
20-Nov-16 13:08 37.381624 -113.978287 297 9309ft 198kts
20-Nov-16 13:09 37.426643 -114.017892 321 9530ft 211kts
20-Nov-16 13:10 37.469331 -114.066643 303 9527ft 210kts
20-Nov-16 13:11 37.513708 -114.116505 312 9526ft 215kts
20-Nov-16 13:12 37.558757 -114.166182 312 9526ft 212kts
20-Nov-16 13:13 37.604018 -114.216293 312 9528ft 221kts
20-Nov-16 13:14 37.647498 -114.264265 310 9522ft 195kts
20-Nov-16 13:15 37.687069 -114.308291 310 8861ft 174kts
20-Nov-16 13:16 37.718508 -114.343186 308 7659ft 144kts
20-Nov-16 13:17 37.746163 -114.373991 307 6498ft 124kts
20-Nov-16 13:18 37.772206 -114.402031 314 6428ft 123kts
20-Nov-16 13:19 37.797076 -114.428043 232 5663ft 101kts
20-Nov-16 13:20 37.772407 -114.432543 190 5320ft 93kts
20-Nov-16 13:21 37.771102 -114.419946 325 5112ft 114kts
20-Nov-16 13:22 37.784951 -114.420176 234 4830ft 0kts
20-Nov-16 13:23 37.784951 -114.420176 234 4830ft 0kts
20-Nov-16 13:24 37.784951 -114.420176 234 4830ft 0kts
20-Nov-16 13:25 37.784951 -114.420176 234 4830ft 0kts
20-Nov-16 13:26 37.784951 -114.420176 234 4830ft 0kts
20-Nov-16 13:27 37.784947 -114.420181 247 4830ft 0kts
20-Nov-16 13:28 37.784666 -114.419981 52 4826ft 0kts
20-Nov-16 13:29 37.784377 -114.419829 2 4824ft 0kts
20-Nov-16 13:30 37.784287 -114.419433 158 4818ft 1kts
20-Nov-16 13:31 37.784199 -114.419193 187 4814ft 0kts
20-Nov-16 13:31 37.784199 -114.419193 187 4814ft 0kts
20-Nov-16 13:33 37.784199 -114.419193 187 4814ft 0kts
20-Nov-16 13:33 37.784199 -114.419193 187 4814ft 0kts
20-Nov-16 13:34 37.784182 -114.418638 45 4806ft 1kts
20-Nov-16 13:36 37.787501 -114.420843 360 4831ft 0kts

Navigation Log

Ident Type
Flight plan parsing failed, navigation log unavailable